sensor_id;sensor_type;location;lat;lon;timestamp;temperature;humidity
73509;SHT30;72120;54.964;73.444;2023-10-08T00:00:47;13.73;73.75
73509;SHT30;72120;54.964;73.444;2023-10-08T00:03:19;13.70;73.70
73509;SHT30;72120;54.964;73.444;2023-10-08T00:05:48;13.67;73.92
73509;SHT30;72120;54.964;73.444;2023-10-08T00:08:20;13.64;74.01
73509;SHT30;72120;54.964;73.444;2023-10-08T00:10:47;13.64;74.08
73509;SHT30;72120;54.964;73.444;2023-10-08T00:13:14;13.52;74.20
73509;SHT30;72120;54.964;73.444;2023-10-08T00:15:44;13.46;74.53
73509;SHT30;72120;54.964;73.444;2023-10-08T00:18:21;13.38;74.74
73509;SHT30;72120;54.964;73.444;2023-10-08T00:20:50;13.30;74.93
73509;SHT30;72120;54.964;73.444;2023-10-08T00:23:43;13.22;75.27
73509;SHT30;72120;54.964;73.444;2023-10-08T00:26:18;13.11;75.44
73509;SHT30;72120;54.964;73.444;2023-10-08T00:28:49;13.12;75.58
73509;SHT30;72120;54.964;73.444;2023-10-08T00:31:17;13.13;75.62
73509;SHT30;72120;54.964;73.444;2023-10-08T00:33:44;13.06;75.79
73509;SHT30;72120;54.964;73.444;2023-10-08T00:36:11;13.02;75.94
73509;SHT30;72120;54.964;73.444;2023-10-08T00:38:46;12.96;76.22
73509;SHT30;72120;54.964;73.444;2023-10-08T00:41:17;12.96;76.17
73509;SHT30;72120;54.964;73.444;2023-10-08T00:43:54;12.91;76.28
73509;SHT30;72120;54.964;73.444;2023-10-08T00:46:25;12.85;76.29
73509;SHT30;72120;54.964;73.444;2023-10-08T00:48:58;12.88;76.45
73509;SHT30;72120;54.964;73.444;2023-10-08T00:51:37;12.87;76.31
73509;SHT30;72120;54.964;73.444;2023-10-08T00:54:09;12.85;76.30
73509;SHT30;72120;54.964;73.444;2023-10-08T00:56:40;12.78;76.44
73509;SHT30;72120;54.964;73.444;2023-10-08T00:59:16;12.75;76.65
73509;SHT30;72120;54.964;73.444;2023-10-08T01:01:44;12.71;76.65
73509;SHT30;72120;54.964;73.444;2023-10-08T01:04:27;12.62;76.83
73509;SHT30;72120;54.964;73.444;2023-10-08T01:06:57;12.55;77.25
73509;SHT30;72120;54.964;73.444;2023-10-08T01:09:50;12.48;77.38
73509;SHT30;72120;54.964;73.444;2023-10-08T01:12:22;12.42;77.57
73509;SHT30;72120;54.964;73.444;2023-10-08T01:14:53;12.38;77.81
73509;SHT30;72120;54.964;73.444;2023-10-08T01:17:21;12.40;77.97
73509;SHT30;72120;54.964;73.444;2023-10-08T01:19:53;12.38;78.09
73509;SHT30;72120;54.964;73.444;2023-10-08T01:22:22;12.41;78.14
73509;SHT30;72120;54.964;73.444;2023-10-08T01:24:50;12.45;77.88
73509;SHT30;72120;54.964;73.444;2023-10-08T01:27:18;12.45;78.04
73509;SHT30;72120;54.964;73.444;2023-10-08T01:29:53;12.48;78.00
73509;SHT30;72120;54.964;73.444;2023-10-08T01:32:20;12.54;77.88
73509;SHT30;72120;54.964;73.444;2023-10-08T01:34:49;12.59;77.83
73509;SHT30;72120;54.964;73.444;2023-10-08T01:37:17;12.67;77.68
73509;SHT30;72120;54.964;73.444;2023-10-08T01:39:47;12.75;77.39
73509;SHT30;72120;54.964;73.444;2023-10-08T01:42:16;12.85;77.05
73509;SHT30;72120;54.964;73.444;2023-10-08T01:44:49;12.85;76.82
73509;SHT30;72120;54.964;73.444;2023-10-08T01:47:21;12.89;76.89
73509;SHT30;72120;54.964;73.444;2023-10-08T01:49:51;12.88;76.84
73509;SHT30;72120;54.964;73.444;2023-10-08T01:52:24;12.87;76.89
73509;SHT30;72120;54.964;73.444;2023-10-08T01:54:50;12.88;77.01
73509;SHT30;72120;54.964;73.444;2023-10-08T01:57:22;12.87;76.82
73509;SHT30;72120;54.964;73.444;2023-10-08T01:59:48;12.88;76.88
73509;SHT30;72120;54.964;73.444;2023-10-08T02:02:14;12.87;76.83
73509;SHT30;72120;54.964;73.444;2023-10-08T02:04:41;12.95;76.67
73509;SHT30;72120;54.964;73.444;2023-10-08T02:07:07;13.01;76.58
73509;SHT30;72120;54.964;73.444;2023-10-08T02:09:34;13.03;76.53
73509;SHT30;72120;54.964;73.444;2023-10-08T02:12:00;13.05;76.40
73509;SHT30;72120;54.964;73.444;2023-10-08T02:14:27;13.08;76.26
73509;SHT30;72120;54.964;73.444;2023-10-08T02:16:59;13.11;76.03
73509;SHT30;72120;54.964;73.444;2023-10-08T02:19:32;13.05;76.09
73509;SHT30;72120;54.964;73.444;2023-10-08T02:22:01;12.98;76.14
73509;SHT30;72120;54.964;73.444;2023-10-08T02:24:30;12.92;76.42
73509;SHT30;72120;54.964;73.444;2023-10-08T02:26:57;12.96;76.67
73509;SHT30;72120;54.964;73.444;2023-10-08T02:29:29;12.93;76.53
73509;SHT30;72120;54.964;73.444;2023-10-08T02:31:57;12.84;76.68
73509;SHT30;72120;54.964;73.444;2023-10-08T02:34:23;12.85;76.89
73509;SHT30;72120;54.964;73.444;2023-10-08T02:36:52;12.96;76.66
73509;SHT30;72120;54.964;73.444;2023-10-08T02:39:18;13.01;76.38
73509;SHT30;72120;54.964;73.444;2023-10-08T02:41:49;12.99;76.45
73509;SHT30;72120;54.964;73.444;2023-10-08T02:44:16;12.99;76.31
73509;SHT30;72120;54.964;73.444;2023-10-08T02:46:44;13.02;76.28
73509;SHT30;72120;54.964;73.444;2023-10-08T02:49:18;13.05;76.28
73509;SHT30;72120;54.964;73.444;2023-10-08T02:51:52;13.03;76.01
73509;SHT30;72120;54.964;73.444;2023-10-08T02:54:20;13.08;76.01
73509;SHT30;72120;54.964;73.444;2023-10-08T02:56:51;13.12;75.63
73509;SHT30;72120;54.964;73.444;2023-10-08T02:59:18;13.11;75.57
73509;SHT30;72120;54.964;73.444;2023-10-08T03:01:48;13.12;75.52
73509;SHT30;72120;54.964;73.444;2023-10-08T03:04:15;13.16;75.58
73509;SHT30;72120;54.964;73.444;2023-10-08T03:06:45;13.15;75.37
73509;SHT30;72120;54.964;73.444;2023-10-08T03:09:24;13.12;75.59
73509;SHT30;72120;54.964;73.444;2023-10-08T03:11:52;13.20;75.46
73509;SHT30;72120;54.964;73.444;2023-10-08T03:14:19;13.27;74.98
73509;SHT30;72120;54.964;73.444;2023-10-08T03:16:53;13.24;75.08
73509;SHT30;72120;54.964;73.444;2023-10-08T03:19:21;13.30;75.09
73509;SHT30;72120;54.964;73.444;2023-10-08T03:21:49;13.40;74.64
73509;SHT30;72120;54.964;73.444;2023-10-08T03:24:18;13.42;74.90
73509;SHT30;72120;54.964;73.444;2023-10-08T03:27:05;13.54;74.62
73509;SHT30;72120;54.964;73.444;2023-10-08T03:29:47;13.59;74.51
73509;SHT30;72120;54.964;73.444;2023-10-08T03:32:17;13.60;74.50
73509;SHT30;72120;54.964;73.444;2023-10-08T03:34:48;13.62;74.55
73509;SHT30;72120;54.964;73.444;2023-10-08T03:37:22;13.63;74.42
73509;SHT30;72120;54.964;73.444;2023-10-08T03:39:56;13.73;74.16
73509;SHT30;72120;54.964;73.444;2023-10-08T03:42:40;13.84;74.06
73509;SHT30;72120;54.964;73.444;2023-10-08T03:45:07;13.96;73.55
73509;SHT30;72120;54.964;73.444;2023-10-08T03:47:39;13.88;73.73
73509;SHT30;72120;54.964;73.444;2023-10-08T03:50:09;13.96;73.99
73509;SHT30;72120;54.964;73.444;2023-10-08T03:52:36;14.07;73.43
73509;SHT30;72120;54.964;73.444;2023-10-08T03:55:06;14.18;73.75
73509;SHT30;72120;54.964;73.444;2023-10-08T03:57:44;14.25;74.29
73509;SHT30;72120;54.964;73.444;2023-10-08T04:00:14;14.39;73.31
73509;SHT30;72120;54.964;73.444;2023-10-08T04:02:55;14.65;72.74
73509;SHT30;72120;54.964;73.444;2023-10-08T04:05:22;14.75;72.56
73509;SHT30;72120;54.964;73.444;2023-10-08T04:08:06;14.68;72.09
73509;SHT30;72120;54.964;73.444;2023-10-08T04:11:05;14.68;72.26
73509;SHT30;72120;54.964;73.444;2023-10-08T04:13:34;14.79;71.84
73509;SHT30;72120;54.964;73.444;2023-10-08T04:16:10;14.91;72.17
73509;SHT30;72120;54.964;73.444;2023-10-08T04:18:36;15.12;71.37
73509;SHT30;72120;54.964;73.444;2023-10-08T04:21:06;15.30;71.03
73509;SHT30;72120;54.964;73.444;2023-10-08T04:23:41;15.24;71.01
73509;SHT30;72120;54.964;73.444;2023-10-08T04:26:11;15.47;70.44
73509;SHT30;72120;54.964;73.444;2023-10-08T04:28:37;15.60;70.31
73509;SHT30;72120;54.964;73.444;2023-10-08T04:31:03;15.71;69.84
73509;SHT30;72120;54.964;73.444;2023-10-08T04:33:44;15.91;69.27
73509;SHT30;72120;54.964;73.444;2023-10-08T04:36:11;16.02;69.01
73509;SHT30;72120;54.964;73.444;2023-10-08T04:38:43;16.26;68.35
73509;SHT30;72120;54.964;73.444;2023-10-08T04:41:12;16.62;67.60
73509;SHT30;72120;54.964;73.444;2023-10-08T04:43:38;16.93;67.12
73509;SHT30;72120;54.964;73.444;2023-10-08T04:46:04;17.20;65.89
73509;SHT30;72120;54.964;73.444;2023-10-08T04:48:48;17.16;65.52
73509;SHT30;72120;54.964;73.444;2023-10-08T04:51:21;17.20;65.01
73509;SHT30;72120;54.964;73.444;2023-10-08T04:53:48;17.12;65.35
73509;SHT30;72120;54.964;73.444;2023-10-08T04:56:15;17.27;65.04
73509;SHT30;72120;54.964;73.444;2023-10-08T04:58:47;17.34;64.93
73509;SHT30;72120;54.964;73.444;2023-10-08T05:01:15;17.58;63.65
73509;SHT30;72120;54.964;73.444;2023-10-08T05:03:49;17.75;63.70
73509;SHT30;72120;54.964;73.444;2023-10-08T05:06:34;18.01;62.68
73509;SHT30;72120;54.964;73.444;2023-10-08T05:09:09;18.15;62.19
73509;SHT30;72120;54.964;73.444;2023-10-08T05:11:50;17.94;62.69
73509;SHT30;72120;54.964;73.444;2023-10-08T05:14:20;17.75;63.38
73509;SHT30;72120;54.964;73.444;2023-10-08T05:17:05;18.02;62.55
73509;SHT30;72120;54.964;73.444;2023-10-08T05:19:31;18.19;62.05
73509;SHT30;72120;54.964;73.444;2023-10-08T05:22:15;18.49;61.40
73509;SHT30;72120;54.964;73.444;2023-10-08T05:24:55;18.66;60.86
73509;SHT30;72120;54.964;73.444;2023-10-08T05:27:35;19.00;59.79
73509;SHT30;72120;54.964;73.444;2023-10-08T05:30:24;19.23;58.87
73509;SHT30;72120;54.964;73.444;2023-10-08T05:33:19;19.11;59.10
73509;SHT30;72120;54.964;73.444;2023-10-08T05:35:52;19.20;58.69
73509;SHT30;72120;54.964;73.444;2023-10-08T05:38:43;19.32;58.30
73509;SHT30;72120;54.964;73.444;2023-10-08T05:41:25;19.31;58.21
73509;SHT30;72120;54.964;73.444;2023-10-08T05:43:54;19.40;58.49
73509;SHT30;72120;54.964;73.444;2023-10-08T05:46:39;19.54;57.48
73509;SHT30;72120;54.964;73.444;2023-10-08T05:49:13;19.65;57.32
73509;SHT30;72120;54.964;73.444;2023-10-08T05:51:40;19.68;56.25
73509;SHT30;72120;54.964;73.444;2023-10-08T05:54:24;19.60;56.50
73509;SHT30;72120;54.964;73.444;2023-10-08T05:56:54;19.47;57.16
73509;SHT30;72120;54.964;73.444;2023-10-08T05:59:37;19.64;57.16
73509;SHT30;72120;54.964;73.444;2023-10-08T06:02:19;19.81;56.72
73509;SHT30;72120;54.964;73.444;2023-10-08T06:05:03;19.82;56.66
73509;SHT30;72120;54.964;73.444;2023-10-08T06:07:53;19.92;56.58
73509;SHT30;72120;54.964;73.444;2023-10-08T06:10:31;20.15;56.41
73509;SHT30;72120;54.964;73.444;2023-10-08T06:13:04;20.29;55.38
73509;SHT30;72120;54.964;73.444;2023-10-08T06:15:49;20.32;55.87
73509;SHT30;72120;54.964;73.444;2023-10-08T06:18:24;20.36;56.13
73509;SHT30;72120;54.964;73.444;2023-10-08T06:20:57;20.29;55.78
73509;SHT30;72120;54.964;73.444;2023-10-08T06:23:28;20.35;55.24
73509;SHT30;72120;54.964;73.444;2023-10-08T06:25:58;20.28;55.56
73509;SHT30;72120;54.964;73.444;2023-10-08T06:28:28;20.23;55.47
73509;SHT30;72120;54.964;73.444;2023-10-08T06:30:55;20.33;55.33
73509;SHT30;72120;54.964;73.444;2023-10-08T06:33:25;20.32;55.78
73509;SHT30;72120;54.964;73.444;2023-10-08T06:35:57;20.37;55.11
73509;SHT30;72120;54.964;73.444;2023-10-08T06:38:32;20.35;55.09
73509;SHT30;72120;54.964;73.444;2023-10-08T06:41:00;20.37;54.57
73509;SHT30;72120;54.964;73.444;2023-10-08T06:43:27;20.36;55.08
73509;SHT30;72120;54.964;73.444;2023-10-08T06:45:54;20.30;55.36
73509;SHT30;72120;54.964;73.444;2023-10-08T06:48:24;20.53;54.49
73509;SHT30;72120;54.964;73.444;2023-10-08T06:50:52;20.47;54.17
73509;SHT30;72120;54.964;73.444;2023-10-08T06:53:23;20.37;54.54
73509;SHT30;72120;54.964;73.444;2023-10-08T06:55:49;20.33;53.98
73509;SHT30;72120;54.964;73.444;2023-10-08T06:58:23;20.05;54.28
73509;SHT30;72120;54.964;73.444;2023-10-08T07:00:51;20.01;55.11
73509;SHT30;72120;54.964;73.444;2023-10-08T07:03:18;19.86;55.09
73509;SHT30;72120;54.964;73.444;2023-10-08T07:05:47;19.84;55.07
73509;SHT30;72120;54.964;73.444;2023-10-08T07:08:29;19.79;55.94
73509;SHT30;72120;54.964;73.444;2023-10-08T07:10:59;19.74;55.21
73509;SHT30;72120;54.964;73.444;2023-10-08T07:13:27;19.75;55.85
73509;SHT30;72120;54.964;73.444;2023-10-08T07:15:56;19.78;56.15
73509;SHT30;72120;54.964;73.444;2023-10-08T07:18:22;20.16;54.82
73509;SHT30;72120;54.964;73.444;2023-10-08T07:20:53;20.21;54.91
73509;SHT30;72120;54.964;73.444;2023-10-08T07:23:28;20.12;54.80
73509;SHT30;72120;54.964;73.444;2023-10-08T07:26:02;20.05;55.60
73509;SHT30;72120;54.964;73.444;2023-10-08T07:28:38;20.26;55.46
73509;SHT30;72120;54.964;73.444;2023-10-08T07:31:18;20.39;55.00
73509;SHT30;72120;54.964;73.444;2023-10-08T07:33:49;20.60;54.74
73509;SHT30;72120;54.964;73.444;2023-10-08T07:36:24;20.52;54.92
73509;SHT30;72120;54.964;73.444;2023-10-08T07:38:51;20.50;55.08
73509;SHT30;72120;54.964;73.444;2023-10-08T07:41:20;20.67;54.57
73509;SHT30;72120;54.964;73.444;2023-10-08T07:43:48;20.62;54.46
73509;SHT30;72120;54.964;73.444;2023-10-08T07:46:25;20.46;54.54
73509;SHT30;72120;54.964;73.444;2023-10-08T07:48:53;20.50;55.04
73509;SHT30;72120;54.964;73.444;2023-10-08T07:51:19;20.65;54.54
73509;SHT30;72120;54.964;73.444;2023-10-08T07:53:50;20.75;54.42
73509;SHT30;72120;54.964;73.444;2023-10-08T07:56:24;20.79;54.41
73509;SHT30;72120;54.964;73.444;2023-10-08T07:58:53;20.79;54.27
73509;SHT30;72120;54.964;73.444;2023-10-08T08:01:23;20.60;54.69
73509;SHT30;72120;54.964;73.444;2023-10-08T08:03:53;20.55;55.03
73509;SHT30;72120;54.964;73.444;2023-10-08T08:06:19;20.49;55.00
73509;SHT30;72120;54.964;73.444;2023-10-08T08:08:45;20.40;55.28
73509;SHT30;72120;54.964;73.444;2023-10-08T08:11:11;20.33;55.46
73509;SHT30;72120;54.964;73.444;2023-10-08T08:13:39;20.47;55.40
73509;SHT30;72120;54.964;73.444;2023-10-08T08:16:09;20.46;54.93
73509;SHT30;72120;54.964;73.444;2023-10-08T08:18:49;20.36;55.42
73509;SHT30;72120;54.964;73.444;2023-10-08T08:21:19;20.28;55.15
73509;SHT30;72120;54.964;73.444;2023-10-08T08:23:47;20.26;55.70
73509;SHT30;72120;54.964;73.444;2023-10-08T08:26:23;20.32;56.08
73509;SHT30;72120;54.964;73.444;2023-10-08T08:29:05;20.32;55.80
73509;SHT30;72120;54.964;73.444;2023-10-08T08:31:35;20.09;56.09
73509;SHT30;72120;54.964;73.444;2023-10-08T08:34:02;20.11;56.42
73509;SHT30;72120;54.964;73.444;2023-10-08T08:36:35;20.26;55.88
73509;SHT30;72120;54.964;73.444;2023-10-08T08:39:05;20.47;55.35
73509;SHT30;72120;54.964;73.444;2023-10-08T08:41:38;20.59;55.46
73509;SHT30;72120;54.964;73.444;2023-10-08T08:44:05;20.63;55.44
73509;SHT30;72120;54.964;73.444;2023-10-08T08:46:36;20.77;55.06
73509;SHT30;72120;54.964;73.444;2023-10-08T08:49:07;20.81;55.22
73509;SHT30;72120;54.964;73.444;2023-10-08T08:51:37;20.86;55.34
73509;SHT30;72120;54.964;73.444;2023-10-08T08:54:05;20.75;55.02
73509;SHT30;72120;54.964;73.444;2023-10-08T08:56:41;20.63;55.76
73509;SHT30;72120;54.964;73.444;2023-10-08T08:59:09;20.75;56.06
73509;SHT30;72120;54.964;73.444;2023-10-08T09:01:44;20.69;55.69
73509;SHT30;72120;54.964;73.444;2023-10-08T09:04:11;20.72;55.77
73509;SHT30;72120;54.964;73.444;2023-10-08T09:06:37;20.76;56.47
73509;SHT30;72120;54.964;73.444;2023-10-08T09:09:04;20.76;55.92
73509;SHT30;72120;54.964;73.444;2023-10-08T09:11:52;20.67;56.06
73509;SHT30;72120;54.964;73.444;2023-10-08T09:14:20;20.53;56.06
73509;SHT30;72120;54.964;73.444;2023-10-08T09:16:53;20.63;57.40
73509;SHT30;72120;54.964;73.444;2023-10-08T09:19:20;20.62;57.08
73509;SHT30;72120;54.964;73.444;2023-10-08T09:22:09;20.52;56.18
73509;SHT30;72120;54.964;73.444;2023-10-08T09:24:37;20.47;56.53
73509;SHT30;72120;54.964;73.444;2023-10-08T09:27:08;20.55;56.72
73509;SHT30;72120;54.964;73.444;2023-10-08T09:29:36;20.50;56.33
73509;SHT30;72120;54.964;73.444;2023-10-08T09:32:09;20.32;56.77
73509;SHT30;72120;54.964;73.444;2023-10-08T09:34:36;20.29;56.74
73509;SHT30;72120;54.964;73.444;2023-10-08T09:37:03;20.25;56.37
73509;SHT30;72120;54.964;73.444;2023-10-08T09:39:29;20.32;58.36
73509;SHT30;72120;54.964;73.444;2023-10-08T09:42:04;20.46;56.92
73509;SHT30;72120;54.964;73.444;2023-10-08T09:44:32;20.43;56.92
73509;SHT30;72120;54.964;73.444;2023-10-08T09:49:32;20.21;57.28
73509;SHT30;72120;54.964;73.444;2023-10-08T09:52:02;20.15;58.30
73509;SHT30;72120;54.964;73.444;2023-10-08T09:54:31;20.16;57.57
73509;SHT30;72120;54.964;73.444;2023-10-08T09:57:06;20.22;57.91
73509;SHT30;72120;54.964;73.444;2023-10-08T09:59:34;20.18;57.00
73509;SHT30;72120;54.964;73.444;2023-10-08T10:02:03;20.15;57.85
73509;SHT30;72120;54.964;73.444;2023-10-08T10:04:31;20.15;57.31
73509;SHT30;72120;54.964;73.444;2023-10-08T10:06:58;20.05;57.79
73509;SHT30;72120;54.964;73.444;2023-10-08T10:09:34;20.12;57.64
73509;SHT30;72120;54.964;73.444;2023-10-08T10:12:02;20.19;57.63
73509;SHT30;72120;54.964;73.444;2023-10-08T10:14:42;20.01;57.25
73509;SHT30;72120;54.964;73.444;2023-10-08T10:17:12;19.92;57.31
73509;SHT30;72120;54.964;73.444;2023-10-08T10:19:40;20.02;57.49
73509;SHT30;72120;54.964;73.444;2023-10-08T10:22:27;19.94;57.47
73509;SHT30;72120;54.964;73.444;2023-10-08T10:24:57;20.01;57.54
73509;SHT30;72120;54.964;73.444;2023-10-08T10:27:24;20.02;57.58
73509;SHT30;72120;54.964;73.444;2023-10-08T10:29:51;20.06;57.06
73509;SHT30;72120;54.964;73.444;2023-10-08T10:32:18;20.09;56.88
73509;SHT30;72120;54.964;73.444;2023-10-08T10:34:45;20.15;57.26
73509;SHT30;72120;54.964;73.444;2023-10-08T10:37:13;20.18;56.47
73509;SHT30;72120;54.964;73.444;2023-10-08T10:39:55;20.16;57.16
73509;SHT30;72120;54.964;73.444;2023-10-08T10:42:24;20.06;56.95
73509;SHT30;72120;54.964;73.444;2023-10-08T10:44:53;20.06;56.68
73509;SHT30;72120;54.964;73.444;2023-10-08T10:47:24;19.92;57.16
73509;SHT30;72120;54.964;73.444;2023-10-08T10:49:55;19.85;57.43
73509;SHT30;72120;54.964;73.444;2023-10-08T10:52:54;19.81;57.23
73509;SHT30;72120;54.964;73.444;2023-10-08T10:55:21;19.75;57.54
73509;SHT30;72120;54.964;73.444;2023-10-08T10:57:56;19.75;57.62
73509;SHT30;72120;54.964;73.444;2023-10-08T11:00:25;19.77;57.66
73509;SHT30;72120;54.964;73.444;2023-10-08T11:02:58;19.65;57.58
73509;SHT30;72120;54.964;73.444;2023-10-08T11:05:55;19.61;58.54
73509;SHT30;72120;54.964;73.444;2023-10-08T11:08:26;19.62;58.08
73509;SHT30;72120;54.964;73.444;2023-10-08T11:11:01;19.65;57.69
73509;SHT30;72120;54.964;73.444;2023-10-08T11:13:33;19.62;58.00
73509;SHT30;72120;54.964;73.444;2023-10-08T11:16:07;19.64;57.14
73509;SHT30;72120;54.964;73.444;2023-10-08T11:18:41;19.68;57.02
73509;SHT30;72120;54.964;73.444;2023-10-08T11:21:08;19.64;57.92
73509;SHT30;72120;54.964;73.444;2023-10-08T11:26:09;19.77;56.61
73509;SHT30;72120;54.964;73.444;2023-10-08T11:28:39;19.68;56.48
73509;SHT30;72120;54.964;73.444;2023-10-08T11:31:13;19.57;56.84
73509;SHT30;72120;54.964;73.444;2023-10-08T11:33:41;19.58;57.65
73509;SHT30;72120;54.964;73.444;2023-10-08T11:36:09;19.53;57.40
73509;SHT30;72120;54.964;73.444;2023-10-08T11:38:45;19.37;57.35
73509;SHT30;72120;54.964;73.444;2023-10-08T11:41:17;19.23;57.83
73509;SHT30;72120;54.964;73.444;2023-10-08T11:43:52;19.21;58.47
73509;SHT30;72120;54.964;73.444;2023-10-08T11:46:28;19.13;57.88
73509;SHT30;72120;54.964;73.444;2023-10-08T11:49:05;19.08;58.16
73509;SHT30;72120;54.964;73.444;2023-10-08T11:51:35;19.04;58.05
73509;SHT30;72120;54.964;73.444;2023-10-08T11:54:02;19.06;57.99
73509;SHT30;72120;54.964;73.444;2023-10-08T11:56:29;18.97;58.19
73509;SHT30;72120;54.964;73.444;2023-10-08T11:58:55;18.89;58.18
73509;SHT30;72120;54.964;73.444;2023-10-08T12:01:24;18.86;58.40
73509;SHT30;72120;54.964;73.444;2023-10-08T12:03:50;18.79;58.62
73509;SHT30;72120;54.964;73.444;2023-10-08T12:06:17;18.79;57.92
73509;SHT30;72120;54.964;73.444;2023-10-08T12:08:47;18.76;58.18
73509;SHT30;72120;54.964;73.444;2023-10-08T12:11:19;18.70;58.45
73509;SHT30;72120;54.964;73.444;2023-10-08T12:13:49;18.59;57.94
73509;SHT30;72120;54.964;73.444;2023-10-08T12:16:16;18.45;58.35
73509;SHT30;72120;54.964;73.444;2023-10-08T12:18:49;18.41;58.62
73509;SHT30;72120;54.964;73.444;2023-10-08T12:21:25;18.38;58.64
73509;SHT30;72120;54.964;73.444;2023-10-08T12:23:52;18.32;59.17
73509;SHT30;72120;54.964;73.444;2023-10-08T12:26:20;18.39;58.66
73509;SHT30;72120;54.964;73.444;2023-10-08T12:28:47;18.41;58.95
73509;SHT30;72120;54.964;73.444;2023-10-08T12:31:32;18.36;58.47
73509;SHT30;72120;54.964;73.444;2023-10-08T12:33:59;18.19;59.01
73509;SHT30;72120;54.964;73.444;2023-10-08T12:36:26;18.06;59.08
73509;SHT30;72120;54.964;73.444;2023-10-08T12:38:58;17.97;59.43
73509;SHT30;72120;54.964;73.444;2023-10-08T12:41:26;17.90;59.71
73509;SHT30;72120;54.964;73.444;2023-10-08T12:43:57;17.84;59.66
73509;SHT30;72120;54.964;73.444;2023-10-08T12:46:24;17.73;60.05
73509;SHT30;72120;54.964;73.444;2023-10-08T12:48:51;17.74;59.90
73509;SHT30;72120;54.964;73.444;2023-10-08T12:51:21;17.67;60.18
73509;SHT30;72120;54.964;73.444;2023-10-08T12:54:07;17.61;60.51
73509;SHT30;72120;54.964;73.444;2023-10-08T12:56:47;17.60;60.43
73509;SHT30;72120;54.964;73.444;2023-10-08T12:59:22;17.63;60.38
73509;SHT30;72120;54.964;73.444;2023-10-08T13:01:50;17.58;60.21
73509;SHT30;72120;54.964;73.444;2023-10-08T13:04:23;17.55;60.56
73509;SHT30;72120;54.964;73.444;2023-10-08T13:06:55;17.47;60.76
73509;SHT30;72120;54.964;73.444;2023-10-08T13:09:27;17.40;60.79
73509;SHT30;72120;54.964;73.444;2023-10-08T13:11:57;17.38;61.03
73509;SHT30;72120;54.964;73.444;2023-10-08T13:14:26;17.36;61.18
73509;SHT30;72120;54.964;73.444;2023-10-08T13:16:52;17.27;61.39
73509;SHT30;72120;54.964;73.444;2023-10-08T13:19:22;17.27;61.24
73509;SHT30;72120;54.964;73.444;2023-10-08T13:21:52;17.24;61.06
73509;SHT30;72120;54.964;73.444;2023-10-08T13:24:26;17.23;60.95
73509;SHT30;72120;54.964;73.444;2023-10-08T13:26:54;17.16;60.83
73509;SHT30;72120;54.964;73.444;2023-10-08T13:29:21;17.10;60.97
73509;SHT30;72120;54.964;73.444;2023-10-08T13:31:47;17.05;61.52
73509;SHT30;72120;54.964;73.444;2023-10-08T13:34:14;16.99;61.01
73509;SHT30;72120;54.964;73.444;2023-10-08T13:36:42;16.99;62.12
73509;SHT30;72120;54.964;73.444;2023-10-08T13:39:22;17.09;60.87
73509;SHT30;72120;54.964;73.444;2023-10-08T13:41:49;17.09;62.38
73509;SHT30;72120;54.964;73.444;2023-10-08T13:44:15;17.09;61.53
73509;SHT30;72120;54.964;73.444;2023-10-08T13:46:41;17.09;60.93
73509;SHT30;72120;54.964;73.444;2023-10-08T13:49:17;17.02;61.06
73509;SHT30;72120;54.964;73.444;2023-10-08T13:51:46;16.99;61.14
73509;SHT30;72120;54.964;73.444;2023-10-08T13:54:15;16.99;61.26
73509;SHT30;72120;54.964;73.444;2023-10-08T13:56:42;17.15;62.41
73509;SHT30;72120;54.964;73.444;2023-10-08T13:59:14;17.24;62.45
73509;SHT30;72120;54.964;73.444;2023-10-08T14:01:42;17.23;61.49
73509;SHT30;72120;54.964;73.444;2023-10-08T14:04:12;17.23;60.38
73509;SHT30;72120;54.964;73.444;2023-10-08T14:06:43;17.23;60.59
73509;SHT30;72120;54.964;73.444;2023-10-08T14:09:18;17.26;60.20
73509;SHT30;72120;54.964;73.444;2023-10-08T14:11:48;17.23;60.22
73509;SHT30;72120;54.964;73.444;2023-10-08T14:14:21;17.22;59.75
73509;SHT30;72120;54.964;73.444;2023-10-08T14:16:52;17.19;60.02
73509;SHT30;72120;54.964;73.444;2023-10-08T14:19:20;17.13;60.06
73509;SHT30;72120;54.964;73.444;2023-10-08T14:21:54;17.12;59.46
73509;SHT30;72120;54.964;73.444;2023-10-08T14:24:26;17.12;59.57
73509;SHT30;72120;54.964;73.444;2023-10-08T14:26:58;17.06;60.14
73509;SHT30;72120;54.964;73.444;2023-10-08T14:29:29;17.16;59.94
73509;SHT30;72120;54.964;73.444;2023-10-08T14:31:56;17.16;59.52
73509;SHT30;72120;54.964;73.444;2023-10-08T14:34:23;17.13;59.46
73509;SHT30;72120;54.964;73.444;2023-10-08T14:37:09;17.06;59.47
73509;SHT30;72120;54.964;73.444;2023-10-08T14:39:54;17.05;59.48
73509;SHT30;72120;54.964;73.444;2023-10-08T14:42:39;17.09;59.29
73509;SHT30;72120;54.964;73.444;2023-10-08T14:45:27;17.06;59.84
73509;SHT30;72120;54.964;73.444;2023-10-08T14:47:58;17.13;59.35
73509;SHT30;72120;54.964;73.444;2023-10-08T14:50:25;17.12;59.27
73509;SHT30;72120;54.964;73.444;2023-10-08T14:52:59;17.05;59.24
73509;SHT30;72120;54.964;73.444;2023-10-08T14:55:27;16.99;59.68
73509;SHT30;72120;54.964;73.444;2023-10-08T14:57:55;16.87;59.58
73509;SHT30;72120;54.964;73.444;2023-10-08T15:00:22;16.87;59.64
73509;SHT30;72120;54.964;73.444;2023-10-08T15:02:56;16.92;60.10
73509;SHT30;72120;54.964;73.444;2023-10-08T15:05:22;17.00;59.16
73509;SHT30;72120;54.964;73.444;2023-10-08T15:07:52;16.99;58.96
73509;SHT30;72120;54.964;73.444;2023-10-08T15:10:19;17.05;59.41
73509;SHT30;72120;54.964;73.444;2023-10-08T15:12:46;17.19;58.91
73509;SHT30;72120;54.964;73.444;2023-10-08T15:15:12;17.24;58.80
73509;SHT30;72120;54.964;73.444;2023-10-08T15:17:43;17.24;59.30
73509;SHT30;72120;54.964;73.444;2023-10-08T15:20:14;17.19;59.48
73509;SHT30;72120;54.964;73.444;2023-10-08T15:22:44;17.26;60.27
73509;SHT30;72120;54.964;73.444;2023-10-08T15:25:11;17.17;59.15
73509;SHT30;72120;54.964;73.444;2023-10-08T15:27:39;17.22;59.24
73509;SHT30;72120;54.964;73.444;2023-10-08T15:30:08;17.26;59.36
73509;SHT30;72120;54.964;73.444;2023-10-08T15:32:41;17.31;58.46
73509;SHT30;72120;54.964;73.444;2023-10-08T15:35:11;17.24;59.06
73509;SHT30;72120;54.964;73.444;2023-10-08T15:37:38;17.12;58.64
73509;SHT30;72120;54.964;73.444;2023-10-08T15:40:04;17.17;59.97
73509;SHT30;72120;54.964;73.444;2023-10-08T15:42:35;17.17;62.40
73509;SHT30;72120;54.964;73.444;2023-10-08T15:45:02;17.24;60.00
73509;SHT30;72120;54.964;73.444;2023-10-08T15:47:31;17.31;60.25